Breslau, Texas
Current Conditions -  °F | °C
As of 10:35 PM on Saturday 25 Oct 2014 (Local Time) from K66R Reporting Station
Clear Clear  
Wind Chill: 66°   Ceiling: Unl
Heat Index: 66°   Visibility: 10mi
Dew Point: 60°   Wind: 3mph
Humidity: 80%   Direction: 190°S
Pressure: 30.11"   Gusts: NA
Location:  29.3984°N, 96.8256°W
Report Text: K66R 260335Z AUTO 19003KT 10SM CLR 19/16 A3011 RMK AO2 T01900155
Loading
Personal Weather Stations






























Interactive Weather Map
Tropical Storm Tracking
New forecast layout! Learn more

10-Day Weather Forecast

Advertisements
Track Severe Weather on mobile